createdAt,value
2019-03-24T00:00:59.842Z,84.50
2019-03-24T00:03:29.617Z,73.50
2019-03-24T00:06:08.845Z,74.77
2019-03-24T00:08:47.864Z,78.50
2019-03-24T00:11:17.075Z,92.53
2019-03-24T00:13:46.311Z,89.37
2019-03-24T00:16:15.529Z,81.00
2019-03-24T00:18:53.831Z,107.97
2019-03-24T00:21:23.145Z,102.97
2019-03-24T00:23:52.482Z,108.80
2019-03-24T00:26:23.475Z,94.77
2019-03-24T00:29:02.103Z,95.40
2019-03-24T00:31:31.589Z,74.20
2019-03-24T00:34:00.899Z,78.40
2019-03-24T00:36:33.351Z,75.73
2019-03-24T00:39:12.859Z,76.07
2019-03-24T00:41:44.366Z,74.33
2019-03-24T00:44:16.057Z,74.37
2019-03-24T00:46:45.466Z,72.27
2019-03-24T00:49:24.460Z,72.43
2019-03-24T00:51:53.924Z,78.37
2019-03-24T00:54:23.138Z,78.33
2019-03-24T00:56:52.979Z,77.27
2019-03-24T00:59:32.484Z,74.97
2019-03-24T01:02:02.112Z,77.27
2019-03-24T01:04:31.611Z,78.83
2019-03-24T01:07:01.113Z,78.73
2019-03-24T01:09:41.480Z,81.37
2019-03-24T01:12:10.952Z,90.60
2019-03-24T01:14:40.458Z,89.23
2019-03-24T01:17:09.689Z,83.57
2019-03-24T01:19:48.197Z,82.23
2019-03-24T01:22:17.689Z,88.63
2019-03-24T01:24:46.935Z,96.07
2019-03-24T01:27:16.211Z,89.37
2019-03-24T01:29:54.546Z,90.47
2019-03-24T01:32:23.784Z,94.83
2019-03-24T01:34:53.120Z,91.23
2019-03-24T01:37:22.543Z,89.70
2019-03-24T01:40:01.238Z,98.47
2019-03-24T01:42:31.039Z,107.13
2019-03-24T01:45:00.931Z,99.90
2019-03-24T01:47:30.319Z,98.73
2019-03-24T01:50:08.820Z,94.80
2019-03-24T01:52:38.321Z,94.47
2019-03-24T01:55:08.705Z,110.43
2019-03-24T01:57:37.998Z,96.70
2019-03-24T02:00:16.403Z,101.87
2019-03-24T02:02:45.880Z,112.03
2019-03-24T02:05:15.102Z,92.13
2019-03-24T02:07:44.759Z,102.97
2019-03-24T02:10:23.199Z,109.33
2019-03-24T02:12:54.793Z,107.80
2019-03-24T02:15:24.282Z,107.50
2019-03-24T02:17:53.528Z,110.20
2019-03-24T02:20:31.882Z,104.27
2019-03-24T02:23:01.354Z,113.93
2019-03-24T02:25:31.100Z,112.47
2019-03-24T02:28:01.158Z,101.20
2019-03-24T02:33:14.151Z,118.20
2019-03-24T02:35:43.950Z,111.43
2019-03-24T02:38:13.611Z,121.03
2019-03-24T02:40:52.457Z,120.00
2019-03-24T02:43:23.768Z,113.53
2019-03-24T02:45:53.046Z,108.87
2019-03-24T02:48:25.268Z,119.07
2019-03-24T02:51:03.948Z,113.67
2019-03-24T02:53:33.155Z,104.83
2019-03-24T02:56:02.386Z,126.57
2019-03-24T02:58:31.649Z,109.23
2019-03-24T03:01:12.104Z,117.87
2019-03-24T03:03:41.350Z,104.73
2019-03-24T03:06:10.650Z,117.93
2019-03-24T03:08:39.994Z,110.47
2019-03-24T03:11:30.226Z,101.93
2019-03-24T03:13:59.722Z,96.97
2019-03-24T03:16:38.288Z,107.50
2019-03-24T03:19:02.345Z,107.33
2019-03-24T03:21:40.800Z,112.47
2019-03-24T03:24:10.026Z,101.20
2019-03-24T03:26:39.251Z,109.57
2019-03-24T03:29:08.624Z,89.30
2019-03-24T03:31:38.194Z,105.77
2019-03-24T03:34:07.941Z,103.37
2019-03-24T03:36:37.491Z,108.53
2019-03-24T03:39:08.598Z,112.13
2019-03-24T03:41:53.448Z,119.90
2019-03-24T03:44:22.997Z,98.50
2019-03-24T03:46:53.565Z,106.57
2019-03-24T03:49:23.184Z,94.60
2019-03-24T03:52:46.125Z,99.47
2019-03-24T03:55:15.641Z,99.17
2019-03-24T03:57:47.283Z,105.13
2019-03-24T04:00:44.805Z,96.87
2019-03-24T04:03:16.142Z,105.10
2019-03-24T04:05:48.255Z,107.40
2019-03-24T04:08:17.466Z,96.50
2019-03-24T04:11:10.262Z,107.43
2019-03-24T04:13:39.512Z,98.27
2019-03-24T04:16:08.981Z,100.13
2019-03-24T04:18:38.266Z,101.70
2019-03-24T04:21:16.735Z,108.00
2019-03-24T04:23:45.997Z,101.63
2019-03-24T04:26:15.827Z,96.97
2019-03-24T04:28:45.234Z,94.50
2019-03-24T04:31:23.766Z,102.37
2019-03-24T04:33:53.203Z,107.57
2019-03-24T04:36:22.632Z,107.37
2019-03-24T04:38:54.914Z,110.10
2019-03-24T04:41:48.450Z,107.93
2019-03-24T04:44:17.704Z,99.07
2019-03-24T04:46:47.308Z,101.37
2019-03-24T04:49:16.523Z,106.47
2019-03-24T04:51:55.212Z,102.90
2019-03-24T04:54:24.432Z,96.93
2019-03-24T04:56:53.626Z,106.47
2019-03-24T04:59:22.853Z,116.63
2019-03-24T05:04:37.212Z,113.60
2019-03-24T05:07:06.512Z,114.13
2019-03-24T05:09:35.858Z,113.13
2019-03-24T05:12:14.270Z,100.33
2019-03-24T05:14:44.016Z,110.63
2019-03-24T05:17:13.221Z,123.30
2019-03-24T05:19:45.277Z,95.57
2019-03-24T05:23:08.248Z,107.17
2019-03-24T05:25:39.659Z,113.97
2019-03-24T05:28:08.958Z,114.37
2019-03-24T05:33:34.230Z,104.87
2019-03-24T05:36:03.773Z,98.70
2019-03-24T05:38:33.275Z,94.07
2019-03-24T05:41:12.031Z,97.13
2019-03-24T05:43:53.566Z,105.73
2019-03-24T05:46:24.856Z,95.73
2019-03-24T05:48:54.086Z,106.10
2019-03-24T05:51:32.727Z,95.63
2019-03-24T05:54:02.197Z,99.97
2019-03-24T05:56:31.699Z,93.83
2019-03-24T05:59:00.913Z,100.10
2019-03-24T06:01:39.271Z,88.17
2019-03-24T06:04:08.465Z,99.27
2019-03-24T06:06:37.751Z,88.10
2019-03-24T06:09:08.689Z,98.53
2019-03-24T06:11:59.491Z,90.37
2019-03-24T06:14:30.810Z,83.50
2019-03-24T06:17:00.155Z,87.87
2019-03-24T06:19:32.391Z,91.60
2019-03-24T06:22:10.654Z,77.20
2019-03-24T06:24:40.421Z,76.17
2019-03-24T06:27:09.713Z,80.30
2019-03-24T06:29:38.942Z,74.70
2019-03-24T06:32:17.219Z,80.13
2019-03-24T06:34:46.766Z,76.73
2019-03-24T06:37:16.001Z,70.37
2019-03-24T06:39:45.529Z,69.13
2019-03-24T06:42:23.845Z,73.10
2019-03-24T06:44:56.085Z,66.87
2019-03-24T06:47:25.440Z,63.80
2019-03-24T06:49:54.971Z,63.90
2019-03-24T06:52:35.767Z,60.13
2019-03-24T06:55:14.296Z,63.53
2019-03-24T06:57:43.593Z,67.07
2019-03-24T07:00:15.346Z,63.37
2019-03-24T07:02:54.088Z,60.00
2019-03-24T07:05:41.169Z,62.80
2019-03-24T07:08:10.279Z,59.37
2019-03-24T07:10:39.934Z,61.67
2019-03-24T07:13:32.122Z,60.93
2019-03-24T07:16:23.059Z,61.27
2019-03-24T07:18:53.779Z,65.57
2019-03-24T07:25:03.818Z,63.73
2019-03-24T07:27:33.250Z,62.47
2019-03-24T07:30:02.533Z,63.07
2019-03-24T07:32:40.765Z,60.90
2019-03-24T07:35:10.052Z,59.80
2019-03-24T07:37:40.757Z,62.70
2019-03-24T07:40:10.026Z,55.50
2019-03-24T07:42:54.879Z,65.67
2019-03-24T07:45:30.898Z,54.13
2019-03-24T07:51:37.524Z,60.63
2019-03-24T07:54:23.017Z,111.53
2019-03-24T07:56:52.375Z,60.27
2019-03-24T07:59:32.577Z,56.60
2019-03-24T08:02:50.824Z,53.73
2019-03-24T08:05:53.158Z,57.00
2019-03-24T08:09:06.480Z,54.97
2019-03-24T08:14:59.855Z,58.07
2019-03-24T08:17:57.434Z,55.50
2019-03-24T08:28:25.932Z,54.27
2019-03-24T08:30:57.238Z,58.97
2019-03-24T08:36:15.675Z,57.80
2019-03-24T08:38:47.387Z,65.57
2019-03-24T08:41:16.686Z,57.60
2019-03-24T08:43:55.110Z,55.90
2019-03-24T08:46:24.348Z,57.30
2019-03-24T08:48:53.981Z,59.57
2019-03-24T08:51:26.489Z,55.73
2019-03-24T08:54:17.079Z,59.27
2019-03-24T08:56:47.171Z,54.40
2019-03-24T08:59:16.720Z,63.27
2019-03-24T09:01:46.170Z,57.50
2019-03-24T09:04:24.634Z,62.47
2019-03-24T09:07:13.041Z,54.40
2019-03-24T09:09:44.330Z,55.43
2019-03-24T09:12:13.860Z,54.50
2019-03-24T09:14:49.050Z,59.37
2019-03-24T09:17:18.599Z,56.87
2019-03-24T09:19:47.871Z,57.80
2019-03-24T09:22:17.438Z,54.60
2019-03-24T09:24:55.966Z,57.67
2019-03-24T09:27:25.272Z,54.00
2019-03-24T09:29:54.526Z,53.67
2019-03-24T09:32:23.771Z,56.07
2019-03-24T09:35:02.214Z,55.20
2019-03-24T09:37:31.806Z,55.05
2019-03-24T09:40:32.258Z,56.77
2019-03-24T09:43:01.646Z,53.08
2019-03-24T09:46:10.289Z,52.73
2019-03-24T09:48:39.924Z,54.38
2019-03-24T09:51:09.802Z,51.65
2019-03-24T09:53:39.419Z,53.05
2019-03-24T09:56:09.023Z,51.40
2019-03-24T09:58:50.691Z,52.98
2019-03-24T10:01:20.009Z,55.85
2019-03-24T10:03:49.364Z,49.75
2019-03-24T10:06:18.921Z,52.15
2019-03-24T10:08:57.886Z,53.40
2019-03-24T10:11:27.813Z,54.00
2019-03-24T10:13:59.829Z,53.75
2019-03-24T10:16:31.557Z,51.23
2019-03-24T10:19:14.149Z,46.98
2019-03-24T10:21:41.390Z,51.25
2019-03-24T10:24:11.074Z,50.17
2019-03-24T10:26:40.496Z,51.08
2019-03-24T10:29:19.263Z,50.55
2019-03-24T10:31:49.158Z,53.10
2019-03-24T10:34:18.455Z,50.85
2019-03-24T10:36:48.009Z,55.98
2019-03-24T10:39:26.651Z,54.05
2019-03-24T10:41:56.216Z,49.98
2019-03-24T10:44:25.471Z,49.20
2019-03-24T10:46:54.798Z,56.23
2019-03-24T10:49:45.092Z,50.95
2019-03-24T10:52:16.602Z,51.95
2019-03-24T10:54:46.280Z,50.28
2019-03-24T10:57:15.800Z,52.80
2019-03-24T10:59:54.021Z,55.30
2019-03-24T11:02:26.373Z,50.55
2019-03-24T11:04:55.700Z,50.12
2019-03-24T11:07:25.303Z,53.83
2019-03-24T11:10:04.156Z,51.45
2019-03-24T11:12:33.718Z,54.53
2019-03-24T11:15:03.637Z,49.65
2019-03-24T11:17:33.004Z,47.40
2019-03-24T11:20:11.799Z,51.08
2019-03-24T11:22:46.440Z,49.40
2019-03-24T11:28:46.679Z,47.65
2019-03-24T11:34:02.840Z,54.08
2019-03-24T11:36:32.420Z,46.33
2019-03-24T11:39:04.977Z,50.15
2019-03-24T11:41:43.992Z,47.25
2019-03-24T11:44:14.541Z,49.20
2019-03-24T11:46:45.866Z,46.35
2019-03-24T11:49:17.531Z,48.68
2019-03-24T11:51:56.070Z,46.35
2019-03-24T11:54:53.004Z,48.65
2019-03-24T11:57:25.373Z,45.78
2019-03-24T12:00:11.041Z,49.85
2019-03-24T12:02:40.400Z,50.67
2019-03-24T12:05:10.075Z,50.25
2019-03-24T12:07:39.413Z,46.98
2019-03-24T12:10:17.744Z,48.42
2019-03-24T12:12:47.307Z,50.38
2019-03-24T12:15:16.992Z,48.70
2019-03-24T12:17:46.555Z,49.10
2019-03-24T12:20:28.875Z,48.70
2019-03-24T12:22:59.449Z,51.25
2019-03-24T12:25:31.281Z,57.08
2019-03-24T12:28:00.678Z,51.30
2019-03-24T12:30:39.309Z,50.52
2019-03-24T12:33:08.690Z,48.87
2019-03-24T12:55:28.618Z,49.40
2019-03-24T12:57:58.651Z,48.42
2019-03-24T13:00:43.365Z,44.15
2019-03-24T13:03:15.167Z,44.98
2019-03-24T13:05:46.904Z,47.45
2019-03-24T13:08:24.738Z,52.17
2019-03-24T13:11:03.321Z,48.60
2019-03-24T13:13:32.595Z,47.03
2019-03-24T13:16:02.182Z,49.35
2019-03-24T13:18:31.475Z,51.83
2019-03-24T13:21:10.316Z,50.57
2019-03-24T13:23:39.593Z,50.30
2019-03-24T13:26:08.835Z,51.13
2019-03-24T13:28:38.366Z,48.33
2019-03-24T13:31:17.272Z,53.20
2019-03-24T13:33:46.544Z,54.77
2019-03-24T13:36:16.120Z,55.17
2019-03-24T13:38:47.995Z,53.87
2019-03-24T13:41:26.874Z,55.63
2019-03-24T13:43:57.414Z,51.93
2019-03-24T13:46:26.695Z,52.17
2019-03-24T13:48:55.979Z,54.43
2019-03-24T13:51:37.543Z,56.63
2019-03-24T13:54:08.558Z,56.43
2019-03-24T13:56:40.559Z,51.27
2019-03-24T13:59:09.899Z,54.63
2019-03-24T14:01:48.328Z,53.03
2019-03-24T14:04:17.631Z,54.13
2019-03-24T14:06:47.213Z,56.43
2019-03-24T14:09:16.604Z,56.30
2019-03-24T14:11:55.027Z,57.33
2019-03-24T14:14:24.657Z,50.37
2019-03-24T14:16:53.923Z,53.37
2019-03-24T14:19:26.017Z,54.47
2019-03-24T14:22:04.731Z,49.03
2019-03-24T14:24:34.320Z,56.27
2019-03-24T14:27:03.718Z,54.50
2019-03-24T14:29:33.094Z,53.93
2019-03-24T14:32:11.410Z,55.07
2019-03-24T14:34:40.715Z,57.83
2019-03-24T14:37:11.816Z,56.37
2019-03-24T14:39:41.482Z,51.03
2019-03-24T14:42:21.635Z,53.07
2019-03-24T14:44:52.367Z,52.53
2019-03-24T14:47:22.063Z,57.97
2019-03-24T14:49:54.995Z,56.10
2019-03-24T14:52:24.584Z,54.57
2019-03-24T14:54:54.183Z,54.30
2019-03-24T14:57:26.956Z,51.50
2019-03-24T14:59:56.991Z,57.03
2019-03-24T15:02:35.812Z,53.20
2019-03-24T15:05:06.235Z,50.40
2019-03-24T15:07:37.477Z,52.37
2019-03-24T15:10:08.097Z,49.40
2019-03-24T15:12:46.318Z,48.50
2019-03-24T15:15:17.804Z,49.83
2019-03-24T15:17:47.092Z,54.30
2019-03-24T15:20:16.369Z,45.90
2019-03-24T15:22:55.086Z,53.07
2019-03-24T15:25:24.418Z,51.27
2019-03-24T15:27:53.744Z,56.30
2019-03-24T15:30:25.332Z,58.17
2019-03-24T15:33:03.795Z,56.77
2019-03-24T15:35:33.313Z,51.30
2019-03-24T15:38:09.152Z,56.57
2019-03-24T15:41:38.484Z,55.37
2019-03-24T15:47:23.648Z,58.43
2019-03-24T15:49:53.694Z,55.90
2019-03-24T15:52:41.110Z,53.07
2019-03-24T15:55:15.806Z,52.60
2019-03-24T15:57:45.021Z,59.87
2019-03-24T16:00:16.021Z,52.60
2019-03-24T16:02:54.460Z,54.23
2019-03-24T16:05:23.746Z,57.97
2019-03-24T16:07:55.406Z,57.83
2019-03-24T16:10:34.903Z,57.80
2019-03-24T16:13:15.351Z,53.67
2019-03-24T16:15:37.978Z,54.83
2019-03-24T16:18:07.363Z,63.43
2019-03-24T16:20:37.810Z,65.67
2019-03-24T16:26:06.585Z,56.70
2019-03-24T16:28:37.366Z,58.50
2019-03-24T16:31:09.564Z,63.37
2019-03-24T16:33:48.381Z,56.30
2019-03-24T16:36:24.778Z,59.73
2019-03-24T16:39:03.197Z,60.20
2019-03-24T16:41:25.449Z,63.47
2019-03-24T16:46:39.657Z,50.67
2019-03-24T16:49:09.019Z,53.87
2019-03-24T16:51:41.582Z,65.33
2019-03-24T16:54:38.133Z,55.63
2019-03-24T16:57:07.596Z,63.77
2019-03-24T16:59:39.713Z,66.63
2019-03-24T17:02:09.125Z,78.33
2019-03-24T17:04:50.626Z,73.13
2019-03-24T17:07:20.196Z,59.87
2019-03-24T17:09:49.478Z,61.83
2019-03-24T17:12:18.993Z,68.60
2019-03-24T17:15:00.397Z,65.80
2019-03-24T17:17:29.635Z,61.10
2019-03-24T17:20:01.180Z,60.93
2019-03-24T17:22:40.033Z,59.37
2019-03-24T17:25:11.474Z,62.10
2019-03-24T17:27:41.048Z,58.30
2019-03-24T17:30:11.181Z,55.37
2019-03-24T17:32:41.950Z,58.40
2019-03-24T17:35:25.491Z,61.73
2019-03-24T17:37:54.942Z,64.63
2019-03-24T17:40:24.248Z,58.20
2019-03-24T17:42:56.617Z,61.00
2019-03-24T17:45:34.978Z,64.83
2019-03-24T17:48:38.270Z,60.73
2019-03-24T17:50:46.766Z,64.33
2019-03-24T17:53:18.789Z,57.67
2019-03-24T17:58:32.689Z,69.10
2019-03-24T18:01:01.959Z,66.63
2019-03-24T18:03:46.506Z,59.07
2019-03-24T18:06:18.133Z,59.07
2019-03-24T18:08:47.405Z,60.57
2019-03-24T18:11:16.901Z,61.40
2019-03-24T18:16:33.059Z,59.17
2019-03-24T18:19:04.412Z,56.47
2019-03-24T18:21:33.675Z,53.57
2019-03-24T18:26:47.788Z,54.67
2019-03-24T18:29:17.405Z,61.87
2019-03-24T18:31:46.707Z,52.07
2019-03-24T18:34:25.416Z,60.27
2019-03-24T18:36:55.356Z,58.03
2019-03-24T18:39:24.870Z,53.20
2019-03-24T18:41:54.324Z,56.37
2019-03-24T18:44:34.480Z,52.93
2019-03-24T18:47:04.050Z,58.57
2019-03-24T18:49:33.605Z,59.90
2019-03-24T18:52:03.732Z,54.50
2019-03-24T18:54:43.569Z,47.97
2019-03-24T18:57:16.475Z,57.77
2019-03-24T18:59:47.024Z,54.07
2019-03-24T19:02:16.358Z,49.20
2019-03-24T19:04:54.895Z,48.47
2019-03-24T19:07:24.452Z,45.17
2019-03-24T19:09:53.820Z,49.40
2019-03-24T19:12:26.241Z,47.60
2019-03-24T19:15:07.746Z,48.77
2019-03-24T19:17:39.293Z,47.70
2019-03-24T19:20:11.991Z,46.00
2019-03-24T19:22:41.839Z,50.20
2019-03-24T19:27:54.937Z,45.27
2019-03-24T19:30:33.948Z,40.97
2019-03-24T19:33:03.262Z,47.33
2019-03-24T19:35:41.602Z,48.60
2019-03-24T19:38:11.252Z,44.73
2019-03-24T19:40:40.773Z,48.13
2019-03-24T19:43:10.580Z,51.57
2019-03-24T19:46:01.427Z,46.13
2019-03-24T19:48:33.519Z,41.33
2019-03-24T19:51:02.785Z,47.77
2019-03-24T19:53:32.355Z,46.53
2019-03-24T19:56:12.314Z,45.30
2019-03-24T19:58:42.146Z,45.93
2019-03-24T20:01:13.913Z,39.73
2019-03-24T20:03:43.585Z,47.47
2019-03-24T20:08:58.587Z,42.23
2019-03-24T20:11:30.741Z,39.33
2019-03-24T20:14:02.814Z,47.07
2019-03-24T20:16:44.522Z,39.63
2019-03-24T20:19:14.971Z,40.20
2019-03-24T20:21:47.036Z,42.60
2019-03-24T20:24:16.321Z,39.40
2019-03-24T20:26:55.107Z,36.67
2019-03-24T20:29:24.781Z,47.30
2019-03-24T20:31:54.063Z,45.57
2019-03-24T20:34:23.351Z,42.43
2019-03-24T20:37:02.085Z,44.33
2019-03-24T20:39:31.767Z,42.80
2019-03-24T20:42:01.223Z,40.00
2019-03-24T20:44:32.429Z,38.63
2019-03-24T20:47:23.864Z,40.93
2019-03-24T20:49:55.821Z,45.00
2019-03-24T20:52:25.080Z,43.07
2019-03-24T20:54:54.347Z,40.63
2019-03-24T20:57:32.988Z,39.23
2019-03-24T21:00:02.826Z,42.13
2019-03-24T21:02:32.376Z,41.60
2019-03-24T21:05:01.646Z,38.53
2019-03-24T21:07:40.079Z,39.37
2019-03-24T21:10:09.600Z,37.53
2019-03-24T21:12:39.168Z,39.87
2019-03-24T21:15:11.429Z,45.63
2019-03-24T21:20:24.751Z,44.60
2019-03-24T21:22:54.023Z,40.73
2019-03-24T21:25:25.722Z,39.77
2019-03-24T21:28:04.401Z,43.23
2019-03-24T21:30:36.930Z,46.43
2019-03-24T21:33:06.269Z,47.07
2019-03-24T21:35:36.454Z,43.07
2019-03-24T21:38:07.697Z,45.03
2019-03-24T21:40:38.194Z,44.20
2019-03-24T21:43:07.462Z,44.07
2019-03-24T21:45:36.790Z,48.73
2019-03-24T21:50:51.821Z,38.67
2019-03-24T21:53:21.575Z,41.40
2019-03-24T21:55:50.802Z,47.07
2019-03-24T21:58:29.262Z,43.67
2019-03-24T22:00:58.466Z,44.27
2019-03-24T22:03:27.768Z,41.53
2019-03-24T22:05:56.977Z,47.33
2019-03-24T22:08:35.163Z,44.90
2019-03-24T22:11:04.386Z,45.63
2019-03-24T22:13:33.578Z,45.17
2019-03-24T22:16:02.806Z,43.57
2019-03-24T22:21:07.145Z,45.37
2019-03-24T22:23:38.199Z,47.40
2019-03-24T22:26:07.526Z,44.20
2019-03-24T22:28:46.224Z,40.93
2019-03-24T22:31:15.452Z,44.53
2019-03-24T22:33:46.830Z,44.60
2019-03-24T22:36:16.079Z,37.17
2019-03-24T22:38:54.441Z,43.07
2019-03-24T22:41:23.689Z,42.37
2019-03-24T22:43:52.928Z,40.13
2019-03-24T22:46:23.822Z,38.77
2019-03-24T22:51:37.435Z,43.17
2019-03-24T22:54:06.881Z,44.53
2019-03-24T22:56:37.540Z,49.70
2019-03-24T22:59:16.160Z,45.23
2019-03-24T23:01:45.454Z,54.07
2019-03-24T23:04:16.141Z,47.07
2019-03-24T23:06:45.392Z,50.43
2019-03-24T23:09:27.017Z,54.03
2019-03-24T23:11:56.240Z,44.83
2019-03-24T23:14:25.705Z,43.53
2019-03-24T23:16:54.922Z,47.27
2019-03-24T23:19:33.558Z,42.60
2019-03-24T23:22:02.766Z,42.03
2019-03-24T23:24:32.009Z,40.33
2019-03-24T23:27:04.456Z,40.50
2019-03-24T23:29:46.133Z,37.17
2019-03-24T23:32:15.416Z,37.90
2019-03-24T23:34:44.728Z,36.00
2019-03-24T23:37:13.941Z,39.27
2019-03-24T23:39:52.652Z,34.27
2019-03-24T23:42:25.012Z,35.00
2019-03-24T23:44:54.517Z,34.97
2019-03-24T23:47:23.874Z,36.30
2019-03-24T23:52:37.914Z,33.53
2019-03-24T23:55:08.269Z,30.00
2019-03-24T23:57:37.469Z,27.33
